Bethlehem, GA (30620)

4:39 PM EDT on July 27, 2016 (GMT -0400)
East of Bethlehem, GA | | Change Station

Elev 732 ft 33.91 °N, 83.66 °W | Updated 14 minutes ago

Clear
Clear
88.3 °F
Feels Like 100 °F
N
0.0
Wind Variable Wind from ESE
Gusts 1.0 mph

Today
High -- | Low -- °F
--% Chance of Precip.
Yesterday
High -- | Low -- °F
Precip. -- in
Pressure 30.05 in
Visibility 10.0 miles
Clouds Clear
Heat Index 100 °F
Dew Point 76 °F
Humidity 68%
Rainfall 0.00 in
Snow Depth Not available.
6:43 AM 8:39 PM
Last Quarter, 40% visible
METAR KWDR 272035Z AUTO 22004KT 10SM CLR 33/20 A3005 RMK AO1 LTG DSNT W
Pressure 30.05 in
Visibility 10.0 miles
Clouds Clear
Heat Index 100 °F
Dew Point 76 °F
Humidity 68%
Rainfall 0.00 in
Snow Depth Not available.
6:43 AM 8:39 PM
Last Quarter, 40% visible
METAR KWDR 272035Z AUTO 22004KT 10SM CLR 33/20 A3005 RMK AO1 LTG DSNT W

10-Day Weather Forecast

Almanac

Astronomy

Jul. 27, 2016 Rise Set
Actual Time
Civil Twilight
Nautical Twilight
Astronomical Twilight
Moon
Length of Visible Light
Length of Day
Tomorrow will be .
, % of the Moon is Illuminated

Today's Extremes

State Highs State Lows

Community

WunderPhotos

Upload Photos

1,927,933 photos uploaded!

WunderBlog® & News

Nearby

Air Quality

  Air Quality AQ Index Pollutant
Not available.

Snow Depth

Station Depth Elevation

Earthquake Activity

City Distance Mag. Time & Date
Minimum magnitude displayed is 2.5.

Coastal Water Temperatures

Place Temperature

Stations

Nearby Weather Stations

Station Location Temp. Windchill Dew Point Humidity Wind Precip. Elev Updated Type
                   

Watches & Warnings

There are currently no watches in effect.